sensor_id;sensor_type;location;lat;lon;timestamp;P1;durP1;ratioP1;P2;durP2;ratioP2
22894;SDS011;11614;52.494;6.976;2022-12-07T00:01:45;6.53;;;3.20;;
22894;SDS011;11614;52.494;6.976;2022-12-07T00:04:15;6.00;;;3.20;;
22894;SDS011;11614;52.494;6.976;2022-12-07T00:06:42;6.57;;;3.27;;
22894;SDS011;11614;52.494;6.976;2022-12-07T00:09:12;4.07;;;2.60;;
22894;SDS011;11614;52.494;6.976;2022-12-07T00:11:38;5.87;;;3.13;;
22894;SDS011;11614;52.494;6.976;2022-12-07T00:14:05;5.37;;;2.80;;
22894;SDS011;11614;52.494;6.976;2022-12-07T00:16:32;6.47;;;1.90;;
22894;SDS011;11614;52.494;6.976;2022-12-07T00:18:59;10.37;;;3.23;;
22894;SDS011;11614;52.494;6.976;2022-12-07T00:21:26;2.20;;;1.00;;
22894;SDS011;11614;52.494;6.976;2022-12-07T00:23:56;6.77;;;3.10;;
22894;SDS011;11614;52.494;6.976;2022-12-07T00:26:32;7.70;;;3.40;;
22894;SDS011;11614;52.494;6.976;2022-12-07T00:28:59;6.57;;;3.20;;
22894;SDS011;11614;52.494;6.976;2022-12-07T00:31:28;5.67;;;2.70;;
22894;SDS011;11614;52.494;6.976;2022-12-07T00:33:58;5.80;;;1.50;;
22894;SDS011;11614;52.494;6.976;2022-12-07T00:36:24;3.40;;;1.73;;
22894;SDS011;11614;52.494;6.976;2022-12-07T00:38:50;2.73;;;1.03;;
22894;SDS011;11614;52.494;6.976;2022-12-07T00:41:20;5.77;;;1.50;;
22894;SDS011;11614;52.494;6.976;2022-12-07T00:43:49;3.23;;;0.67;;
22894;SDS011;11614;52.494;6.976;2022-12-07T00:46:18;5.37;;;1.20;;
22894;SDS011;11614;52.494;6.976;2022-12-07T00:48:45;4.10;;;0.97;;
22894;SDS011;11614;52.494;6.976;2022-12-07T00:51:12;2.53;;;1.20;;
22894;SDS011;11614;52.494;6.976;2022-12-07T00:53:38;3.47;;;1.00;;
22894;SDS011;11614;52.494;6.976;2022-12-07T00:56:14;2.00;;;0.60;;
22894;SDS011;11614;52.494;6.976;2022-12-07T00:58:43;2.50;;;0.40;;
22894;SDS011;11614;52.494;6.976;2022-12-07T01:01:09;5.37;;;1.50;;
22894;SDS011;11614;52.494;6.976;2022-12-07T01:03:36;1.73;;;0.73;;
22894;SDS011;11614;52.494;6.976;2022-12-07T01:06:03;5.43;;;1.40;;
22894;SDS011;11614;52.494;6.976;2022-12-07T01:08:29;3.87;;;1.27;;
22894;SDS011;11614;52.494;6.976;2022-12-07T01:11:06;1.47;;;0.43;;
22894;SDS011;11614;52.494;6.976;2022-12-07T01:13:32;2.93;;;1.00;;
22894;SDS011;11614;52.494;6.976;2022-12-07T01:15:59;4.10;;;1.00;;
22894;SDS011;11614;52.494;6.976;2022-12-07T01:18:26;3.37;;;0.90;;
22894;SDS011;11614;52.494;6.976;2022-12-07T01:21:03;4.20;;;0.77;;
22894;SDS011;11614;52.494;6.976;2022-12-07T01:23:30;2.63;;;0.43;;
22894;SDS011;11614;52.494;6.976;2022-12-07T01:25:59;5.50;;;1.13;;
22894;SDS011;11614;52.494;6.976;2022-12-07T01:28:26;2.67;;;1.07;;
22894;SDS011;11614;52.494;6.976;2022-12-07T01:30:59;3.30;;;1.10;;
22894;SDS011;11614;52.494;6.976;2022-12-07T01:33:26;3.23;;;1.10;;
22894;SDS011;11614;52.494;6.976;2022-12-07T01:35:53;3.50;;;1.20;;
22894;SDS011;11614;52.494;6.976;2022-12-07T01:38:19;7.37;;;2.77;;
22894;SDS011;11614;52.494;6.976;2022-12-07T01:40:45;8.33;;;2.93;;
22894;SDS011;11614;52.494;6.976;2022-12-07T01:43:19;8.37;;;3.83;;
22894;SDS011;11614;52.494;6.976;2022-12-07T01:45:45;8.37;;;3.40;;
22894;SDS011;11614;52.494;6.976;2022-12-07T01:48:12;7.40;;;2.93;;
22894;SDS011;11614;52.494;6.976;2022-12-07T01:50:40;8.60;;;3.13;;
22894;SDS011;11614;52.494;6.976;2022-12-07T01:53:08;6.47;;;2.37;;
22894;SDS011;11614;52.494;6.976;2022-12-07T01:55:35;5.60;;;2.47;;
22894;SDS011;11614;52.494;6.976;2022-12-07T01:58:03;6.37;;;2.40;;
22894;SDS011;11614;52.494;6.976;2022-12-07T02:00:29;4.33;;;1.77;;
22894;SDS011;11614;52.494;6.976;2022-12-07T02:02:56;4.63;;;1.13;;
22894;SDS011;11614;52.494;6.976;2022-12-07T02:05:24;3.70;;;0.90;;
22894;SDS011;11614;52.494;6.976;2022-12-07T02:07:51;6.00;;;1.20;;
22894;SDS011;11614;52.494;6.976;2022-12-07T02:12:44;6.63;;;2.20;;
22894;SDS011;11614;52.494;6.976;2022-12-07T02:15:11;7.30;;;2.50;;
22894;SDS011;11614;52.494;6.976;2022-12-07T02:26:25;5.60;;;1.17;;
22894;SDS011;11614;52.494;6.976;2022-12-07T02:28:35;6.03;;;1.47;;
22894;SDS011;11614;52.494;6.976;2022-12-07T02:31:06;4.70;;;1.53;;
22894;SDS011;11614;52.494;6.976;2022-12-07T02:33:35;6.87;;;1.20;;
22894;SDS011;11614;52.494;6.976;2022-12-07T02:38:34;2.53;;;0.83;;
22894;SDS011;11614;52.494;6.976;2022-12-07T02:41:06;4.10;;;0.70;;
22894;SDS011;11614;52.494;6.976;2022-12-07T02:43:34;7.50;;;0.97;;
22894;SDS011;11614;52.494;6.976;2022-12-07T02:46:02;4.77;;;0.80;;
22894;SDS011;11614;52.494;6.976;2022-12-07T02:48:29;4.43;;;0.63;;
22894;SDS011;11614;52.494;6.976;2022-12-07T02:50:57;0.97;;;0.33;;
22894;SDS011;11614;52.494;6.976;2022-12-07T02:53:39;7.07;;;1.60;;
22894;SDS011;11614;52.494;6.976;2022-12-07T03:04:01;1.80;;;0.27;;
22894;SDS011;11614;52.494;6.976;2022-12-07T03:06:31;4.60;;;0.70;;
22894;SDS011;11614;52.494;6.976;2022-12-07T03:09:06;5.67;;;0.53;;
22894;SDS011;11614;52.494;6.976;2022-12-07T03:12:18;1.07;;;0.33;;
22894;SDS011;11614;52.494;6.976;2022-12-07T03:14:28;5.73;;;0.50;;
22894;SDS011;11614;52.494;6.976;2022-12-07T03:17:04;2.40;;;0.27;;
22894;SDS011;11614;52.494;6.976;2022-12-07T03:19:33;5.53;;;0.60;;
22894;SDS011;11614;52.494;6.976;2022-12-07T03:22:00;5.30;;;0.50;;
22894;SDS011;11614;52.494;6.976;2022-12-07T03:24:29;2.93;;;0.50;;
22894;SDS011;11614;52.494;6.976;2022-12-07T03:27:06;1.03;;;0.30;;
22894;SDS011;11614;52.494;6.976;2022-12-07T03:29:34;8.93;;;1.97;;
22894;SDS011;11614;52.494;6.976;2022-12-07T03:32:03;3.97;;;1.93;;
22894;SDS011;11614;52.494;6.976;2022-12-07T03:34:34;8.33;;;2.03;;
22894;SDS011;11614;52.494;6.976;2022-12-07T03:37:03;5.93;;;1.47;;
22894;SDS011;11614;52.494;6.976;2022-12-07T03:39:33;8.87;;;1.57;;
22894;SDS011;11614;52.494;6.976;2022-12-07T03:42:00;4.57;;;1.30;;
22894;SDS011;11614;52.494;6.976;2022-12-07T03:44:27;3.37;;;1.40;;
22894;SDS011;11614;52.494;6.976;2022-12-07T03:49:45;3.10;;;1.20;;
22894;SDS011;11614;52.494;6.976;2022-12-07T03:54:52;4.83;;;0.90;;
22894;SDS011;11614;52.494;6.976;2022-12-07T03:57:22;3.40;;;1.10;;
22894;SDS011;11614;52.494;6.976;2022-12-07T03:59:48;1.93;;;0.60;;
22894;SDS011;11614;52.494;6.976;2022-12-07T04:02:14;4.67;;;0.77;;
22894;SDS011;11614;52.494;6.976;2022-12-07T04:04:41;3.23;;;0.80;;
22894;SDS011;11614;52.494;6.976;2022-12-07T04:07:07;4.20;;;0.30;;
22894;SDS011;11614;52.494;6.976;2022-12-07T04:09:33;2.00;;;0.60;;
22894;SDS011;11614;52.494;6.976;2022-12-07T04:11:59;4.43;;;0.50;;
22894;SDS011;11614;52.494;6.976;2022-12-07T04:14:25;6.23;;;0.33;;
22894;SDS011;11614;52.494;6.976;2022-12-07T04:16:52;4.13;;;0.40;;
22894;SDS011;11614;52.494;6.976;2022-12-07T04:19:19;2.90;;;0.20;;
22894;SDS011;11614;52.494;6.976;2022-12-07T04:21:45;3.10;;;0.30;;
22894;SDS011;11614;52.494;6.976;2022-12-07T04:24:12;5.47;;;0.40;;
22894;SDS011;11614;52.494;6.976;2022-12-07T04:26:38;6.33;;;0.70;;
22894;SDS011;11614;52.494;6.976;2022-12-07T04:29:04;1.40;;;0.33;;
22894;SDS011;11614;52.494;6.976;2022-12-07T04:31:30;4.70;;;0.40;;
22894;SDS011;11614;52.494;6.976;2022-12-07T04:33:56;2.00;;;0.23;;
22894;SDS011;11614;52.494;6.976;2022-12-07T04:36:22;3.67;;;0.40;;
22894;SDS011;11614;52.494;6.976;2022-12-07T04:38:48;1.70;;;0.20;;
22894;SDS011;11614;52.494;6.976;2022-12-07T04:41:14;1.40;;;0.20;;
22894;SDS011;11614;52.494;6.976;2022-12-07T04:43:40;1.50;;;0.53;;
22894;SDS011;11614;52.494;6.976;2022-12-07T04:46:06;0.90;;;0.60;;
22894;SDS011;11614;52.494;6.976;2022-12-07T04:48:32;5.27;;;1.27;;
22894;SDS011;11614;52.494;6.976;2022-12-07T04:50:58;4.07;;;1.40;;
22894;SDS011;11614;52.494;6.976;2022-12-07T04:53:24;6.43;;;1.10;;
22894;SDS011;11614;52.494;6.976;2022-12-07T04:55:50;8.33;;;1.53;;
22894;SDS011;11614;52.494;6.976;2022-12-07T04:58:16;7.93;;;1.37;;
22894;SDS011;11614;52.494;6.976;2022-12-07T05:00:42;2.27;;;0.50;;
22894;SDS011;11614;52.494;6.976;2022-12-07T05:03:08;4.33;;;0.60;;
22894;SDS011;11614;52.494;6.976;2022-12-07T05:05:34;7.80;;;1.53;;
22894;SDS011;11614;52.494;6.976;2022-12-07T05:08:00;1.90;;;0.40;;
22894;SDS011;11614;52.494;6.976;2022-12-07T05:10:26;3.20;;;0.37;;
22894;SDS011;11614;52.494;6.976;2022-12-07T05:12:52;6.80;;;0.93;;
22894;SDS011;11614;52.494;6.976;2022-12-07T05:15:18;2.27;;;0.43;;
22894;SDS011;11614;52.494;6.976;2022-12-07T05:17:44;5.83;;;0.93;;
22894;SDS011;11614;52.494;6.976;2022-12-07T05:20:10;6.33;;;0.80;;
22894;SDS011;11614;52.494;6.976;2022-12-07T05:22:36;6.90;;;0.80;;
22894;SDS011;11614;52.494;6.976;2022-12-07T05:25:02;6.20;;;0.77;;
22894;SDS011;11614;52.494;6.976;2022-12-07T05:27:28;4.17;;;0.60;;
22894;SDS011;11614;52.494;6.976;2022-12-07T05:29:56;2.30;;;0.57;;
22894;SDS011;11614;52.494;6.976;2022-12-07T05:32:22;4.20;;;0.60;;
22894;SDS011;11614;52.494;6.976;2022-12-07T05:34:48;3.93;;;0.40;;
22894;SDS011;11614;52.494;6.976;2022-12-07T05:37:14;3.00;;;0.47;;
22894;SDS011;11614;52.494;6.976;2022-12-07T05:39:40;6.77;;;0.67;;
22894;SDS011;11614;52.494;6.976;2022-12-07T05:42:08;4.43;;;0.50;;
22894;SDS011;11614;52.494;6.976;2022-12-07T05:44:37;3.57;;;1.10;;
22894;SDS011;11614;52.494;6.976;2022-12-07T05:47:03;2.73;;;0.63;;
22894;SDS011;11614;52.494;6.976;2022-12-07T05:49:29;2.83;;;0.60;;
22894;SDS011;11614;52.494;6.976;2022-12-07T05:51:55;3.10;;;0.73;;
22894;SDS011;11614;52.494;6.976;2022-12-07T05:54:21;1.00;;;0.70;;
22894;SDS011;11614;52.494;6.976;2022-12-07T05:56:47;3.57;;;1.17;;
22894;SDS011;11614;52.494;6.976;2022-12-07T05:59:13;8.40;;;0.80;;
22894;SDS011;11614;52.494;6.976;2022-12-07T06:01:52;6.87;;;0.70;;
22894;SDS011;11614;52.494;6.976;2022-12-07T06:04:18;2.87;;;0.80;;
22894;SDS011;11614;52.494;6.976;2022-12-07T06:06:45;2.70;;;0.80;;
22894;SDS011;11614;52.494;6.976;2022-12-07T06:09:11;3.53;;;0.70;;
22894;SDS011;11614;52.494;6.976;2022-12-07T06:11:37;3.93;;;0.57;;
22894;SDS011;11614;52.494;6.976;2022-12-07T06:14:22;4.63;;;0.40;;
22894;SDS011;11614;52.494;6.976;2022-12-07T06:16:48;5.00;;;0.63;;
22894;SDS011;11614;52.494;6.976;2022-12-07T06:19:14;5.27;;;0.53;;
22894;SDS011;11614;52.494;6.976;2022-12-07T06:21:40;0.50;;;0.20;;
22894;SDS011;11614;52.494;6.976;2022-12-07T06:24:06;6.40;;;0.90;;
22894;SDS011;11614;52.494;6.976;2022-12-07T06:26:32;2.67;;;0.50;;
22894;SDS011;11614;52.494;6.976;2022-12-07T06:28:58;6.03;;;1.00;;
22894;SDS011;11614;52.494;6.976;2022-12-07T06:31:24;7.70;;;1.57;;
22894;SDS011;11614;52.494;6.976;2022-12-07T06:33:50;8.37;;;2.80;;
22894;SDS011;11614;52.494;6.976;2022-12-07T06:36:16;4.00;;;1.57;;
22894;SDS011;11614;52.494;6.976;2022-12-07T06:38:42;5.37;;;1.10;;
22894;SDS011;11614;52.494;6.976;2022-12-07T06:41:08;5.03;;;1.97;;
22894;SDS011;11614;52.494;6.976;2022-12-07T06:43:34;6.10;;;1.97;;
22894;SDS011;11614;52.494;6.976;2022-12-07T06:46:00;2.00;;;0.90;;
22894;SDS011;11614;52.494;6.976;2022-12-07T06:48:26;4.13;;;0.83;;
22894;SDS011;11614;52.494;6.976;2022-12-07T06:50:52;5.80;;;1.40;;
22894;SDS011;11614;52.494;6.976;2022-12-07T06:53:18;2.03;;;0.57;;
22894;SDS011;11614;52.494;6.976;2022-12-07T06:55:44;2.80;;;0.70;;
22894;SDS011;11614;52.494;6.976;2022-12-07T06:58:10;3.90;;;1.50;;
22894;SDS011;11614;52.494;6.976;2022-12-07T07:00:36;9.40;;;2.13;;
22894;SDS011;11614;52.494;6.976;2022-12-07T07:03:02;8.13;;;1.83;;
22894;SDS011;11614;52.494;6.976;2022-12-07T07:05:28;7.10;;;1.10;;
22894;SDS011;11614;52.494;6.976;2022-12-07T07:07:54;4.37;;;0.90;;
22894;SDS011;11614;52.494;6.976;2022-12-07T07:10:20;3.27;;;0.57;;
22894;SDS011;11614;52.494;6.976;2022-12-07T07:12:46;1.30;;;0.30;;
22894;SDS011;11614;52.494;6.976;2022-12-07T07:15:12;4.67;;;0.50;;
22894;SDS011;11614;52.494;6.976;2022-12-07T07:17:38;4.60;;;0.70;;
22894;SDS011;11614;52.494;6.976;2022-12-07T07:20:04;5.43;;;1.30;;
22894;SDS011;11614;52.494;6.976;2022-12-07T07:22:30;3.50;;;0.53;;
22894;SDS011;11614;52.494;6.976;2022-12-07T07:24:56;6.87;;;0.77;;
22894;SDS011;11614;52.494;6.976;2022-12-07T07:27:22;4.07;;;0.40;;
22894;SDS011;11614;52.494;6.976;2022-12-07T07:29:48;2.20;;;0.20;;
22894;SDS011;11614;52.494;6.976;2022-12-07T07:32:15;4.40;;;0.50;;
22894;SDS011;11614;52.494;6.976;2022-12-07T07:34:41;3.50;;;0.80;;
22894;SDS011;11614;52.494;6.976;2022-12-07T07:37:07;4.63;;;0.30;;
22894;SDS011;11614;52.494;6.976;2022-12-07T07:39:33;3.30;;;0.63;;
22894;SDS011;11614;52.494;6.976;2022-12-07T07:41:59;3.67;;;0.43;;
22894;SDS011;11614;52.494;6.976;2022-12-07T07:44:25;4.37;;;0.50;;
22894;SDS011;11614;52.494;6.976;2022-12-07T07:46:51;8.10;;;0.63;;
22894;SDS011;11614;52.494;6.976;2022-12-07T07:49:17;5.27;;;0.87;;
22894;SDS011;11614;52.494;6.976;2022-12-07T07:51:43;4.93;;;0.60;;
22894;SDS011;11614;52.494;6.976;2022-12-07T07:54:09;3.57;;;0.80;;
22894;SDS011;11614;52.494;6.976;2022-12-07T07:56:35;4.00;;;0.60;;
22894;SDS011;11614;52.494;6.976;2022-12-07T07:59:01;2.87;;;0.77;;
22894;SDS011;11614;52.494;6.976;2022-12-07T08:01:27;4.37;;;1.17;;
22894;SDS011;11614;52.494;6.976;2022-12-07T08:03:53;6.43;;;1.43;;
22894;SDS011;11614;52.494;6.976;2022-12-07T08:06:19;4.40;;;1.53;;
22894;SDS011;11614;52.494;6.976;2022-12-07T08:08:45;9.40;;;1.73;;
22894;SDS011;11614;52.494;6.976;2022-12-07T08:11:11;5.60;;;1.60;;
22894;SDS011;11614;52.494;6.976;2022-12-07T08:13:37;8.03;;;1.50;;
22894;SDS011;11614;52.494;6.976;2022-12-07T08:16:04;8.33;;;2.20;;
22894;SDS011;11614;52.494;6.976;2022-12-07T08:18:30;9.77;;;2.67;;
22894;SDS011;11614;52.494;6.976;2022-12-07T08:20:59;3.53;;;1.23;;
22894;SDS011;11614;52.494;6.976;2022-12-07T08:23:29;7.33;;;1.33;;
22894;SDS011;11614;52.494;6.976;2022-12-07T08:25:55;7.17;;;1.00;;
22894;SDS011;11614;52.494;6.976;2022-12-07T08:28:25;3.00;;;0.60;;
22894;SDS011;11614;52.494;6.976;2022-12-07T08:30:51;4.53;;;0.67;;
22894;SDS011;11614;52.494;6.976;2022-12-07T08:33:17;5.27;;;1.20;;
22894;SDS011;11614;52.494;6.976;2022-12-07T08:35:43;3.10;;;0.80;;
22894;SDS011;11614;52.494;6.976;2022-12-07T08:38:09;3.17;;;0.60;;
22894;SDS011;11614;52.494;6.976;2022-12-07T08:40:35;4.13;;;0.50;;
22894;SDS011;11614;52.494;6.976;2022-12-07T08:43:01;4.43;;;0.50;;
22894;SDS011;11614;52.494;6.976;2022-12-07T08:45:27;5.60;;;0.40;;
22894;SDS011;11614;52.494;6.976;2022-12-07T08:48:09;2.90;;;0.30;;
22894;SDS011;11614;52.494;6.976;2022-12-07T08:50:36;4.03;;;0.87;;
22894;SDS011;11614;52.494;6.976;2022-12-07T08:53:03;4.10;;;0.70;;
22894;SDS011;11614;52.494;6.976;2022-12-07T08:55:30;5.07;;;0.97;;
22894;SDS011;11614;52.494;6.976;2022-12-07T08:57:59;6.17;;;1.27;;
22894;SDS011;11614;52.494;6.976;2022-12-07T09:00:26;5.60;;;1.60;;
22894;SDS011;11614;52.494;6.976;2022-12-07T09:02:53;6.33;;;1.23;;
22894;SDS011;11614;52.494;6.976;2022-12-07T09:05:19;6.47;;;1.00;;
22894;SDS011;11614;52.494;6.976;2022-12-07T09:07:46;1.33;;;0.50;;
22894;SDS011;11614;52.494;6.976;2022-12-07T09:10:14;4.43;;;0.43;;
22894;SDS011;11614;52.494;6.976;2022-12-07T09:12:40;3.53;;;0.33;;
22894;SDS011;11614;52.494;6.976;2022-12-07T09:15:06;3.67;;;0.60;;
22894;SDS011;11614;52.494;6.976;2022-12-07T09:17:33;2.30;;;0.57;;
22894;SDS011;11614;52.494;6.976;2022-12-07T09:19:59;1.23;;;0.50;;
22894;SDS011;11614;52.494;6.976;2022-12-07T09:22:28;4.90;;;0.70;;
22894;SDS011;11614;52.494;6.976;2022-12-07T09:24:55;3.07;;;0.40;;
22894;SDS011;11614;52.494;6.976;2022-12-07T09:31:01;1.90;;;0.30;;
22894;SDS011;11614;52.494;6.976;2022-12-07T09:36:46;0.50;;;0.20;;
22894;SDS011;11614;52.494;6.976;2022-12-07T10:40:22;3.57;;;0.60;;
22894;SDS011;11614;52.494;6.976;2022-12-07T11:16:50;1.60;;;0.50;;
22894;SDS011;11614;52.494;6.976;2022-12-07T11:47:10;3.90;;;0.63;;
22894;SDS011;11614;52.494;6.976;2022-12-07T11:49:43;1.87;;;0.47;;
22894;SDS011;11614;52.494;6.976;2022-12-07T11:54:55;2.53;;;0.83;;
22894;SDS011;11614;52.494;6.976;2022-12-07T11:57:32;3.87;;;0.90;;
22894;SDS011;11614;52.494;6.976;2022-12-07T12:00:00;1.37;;;0.47;;
22894;SDS011;11614;52.494;6.976;2022-12-07T12:02:31;3.27;;;1.00;;
22894;SDS011;11614;52.494;6.976;2022-12-07T12:04:59;4.90;;;0.70;;
22894;SDS011;11614;52.494;6.976;2022-12-07T12:07:28;3.63;;;0.43;;
22894;SDS011;11614;52.494;6.976;2022-12-07T12:09:58;2.83;;;0.40;;
22894;SDS011;11614;52.494;6.976;2022-12-07T12:17:50;4.30;;;0.63;;
22894;SDS011;11614;52.494;6.976;2022-12-07T12:22:45;5.50;;;1.47;;
22894;SDS011;11614;52.494;6.976;2022-12-07T12:25:19;3.83;;;0.80;;
22894;SDS011;11614;52.494;6.976;2022-12-07T12:27:45;3.80;;;0.67;;
22894;SDS011;11614;52.494;6.976;2022-12-07T12:30:30;5.47;;;1.10;;
22894;SDS011;11614;52.494;6.976;2022-12-07T12:33:03;4.27;;;0.67;;
22894;SDS011;11614;52.494;6.976;2022-12-07T12:35:36;0.90;;;0.23;;
22894;SDS011;11614;52.494;6.976;2022-12-07T12:40:41;4.40;;;0.73;;
22894;SDS011;11614;52.494;6.976;2022-12-07T12:43:39;2.80;;;0.40;;
22894;SDS011;11614;52.494;6.976;2022-12-07T12:46:28;4.80;;;0.90;;
22894;SDS011;11614;52.494;6.976;2022-12-07T12:48:39;2.47;;;0.70;;
22894;SDS011;11614;52.494;6.976;2022-12-07T12:53:50;2.97;;;0.67;;
22894;SDS011;11614;52.494;6.976;2022-12-07T12:58:46;3.90;;;0.90;;
22894;SDS011;11614;52.494;6.976;2022-12-07T13:03:58;4.80;;;0.70;;
22894;SDS011;11614;52.494;6.976;2022-12-07T13:08:50;4.00;;;0.90;;
22894;SDS011;11614;52.494;6.976;2022-12-07T13:11:25;5.10;;;0.80;;
22894;SDS011;11614;52.494;6.976;2022-12-07T13:13:56;1.93;;;0.30;;
22894;SDS011;11614;52.494;6.976;2022-12-07T13:16:40;4.00;;;0.80;;
22894;SDS011;11614;52.494;6.976;2022-12-07T13:21:51;7.20;;;0.80;;
22894;SDS011;11614;52.494;6.976;2022-12-07T13:24:17;4.80;;;0.57;;
22894;SDS011;11614;52.494;6.976;2022-12-07T13:26:44;4.93;;;0.57;;
22894;SDS011;11614;52.494;6.976;2022-12-07T13:34:26;1.90;;;0.80;;
22894;SDS011;11614;52.494;6.976;2022-12-07T13:36:50;3.73;;;0.70;;
22894;SDS011;11614;52.494;6.976;2022-12-07T13:39:20;4.37;;;0.50;;
22894;SDS011;11614;52.494;6.976;2022-12-07T13:41:51;4.40;;;0.90;;
22894;SDS011;11614;52.494;6.976;2022-12-07T13:44:18;3.30;;;0.43;;
22894;SDS011;11614;52.494;6.976;2022-12-07T13:49:46;4.83;;;0.60;;
22894;SDS011;11614;52.494;6.976;2022-12-07T13:52:23;6.90;;;0.70;;
22894;SDS011;11614;52.494;6.976;2022-12-07T13:57:23;2.77;;;0.50;;
22894;SDS011;11614;52.494;6.976;2022-12-07T13:59:50;5.00;;;0.87;;
22894;SDS011;11614;52.494;6.976;2022-12-07T14:02:26;8.67;;;1.20;;
22894;SDS011;11614;52.494;6.976;2022-12-07T14:05:05;3.57;;;0.60;;
22894;SDS011;11614;52.494;6.976;2022-12-07T14:07:31;1.97;;;0.60;;
22894;SDS011;11614;52.494;6.976;2022-12-07T14:10:05;6.97;;;1.33;;
22894;SDS011;11614;52.494;6.976;2022-12-07T14:12:32;3.30;;;0.60;;
22894;SDS011;11614;52.494;6.976;2022-12-07T14:15:01;4.97;;;0.53;;
22894;SDS011;11614;52.494;6.976;2022-12-07T14:17:27;5.97;;;0.60;;
22894;SDS011;11614;52.494;6.976;2022-12-07T14:19:55;2.73;;;0.63;;
22894;SDS011;11614;52.494;6.976;2022-12-07T14:24:47;2.93;;;0.47;;
22894;SDS011;11614;52.494;6.976;2022-12-07T14:27:17;3.93;;;0.67;;
22894;SDS011;11614;52.494;6.976;2022-12-07T14:29:43;3.90;;;0.83;;
22894;SDS011;11614;52.494;6.976;2022-12-07T14:32:28;3.13;;;0.70;;
22894;SDS011;11614;52.494;6.976;2022-12-07T14:34:55;3.73;;;0.47;;
22894;SDS011;11614;52.494;6.976;2022-12-07T14:37:21;3.70;;;0.63;;
22894;SDS011;11614;52.494;6.976;2022-12-07T14:39:47;2.87;;;0.67;;
22894;SDS011;11614;52.494;6.976;2022-12-07T14:42:14;3.50;;;0.40;;
22894;SDS011;11614;52.494;6.976;2022-12-07T14:44:40;3.90;;;0.80;;
22894;SDS011;11614;52.494;6.976;2022-12-07T14:47:08;7.10;;;0.93;;
22894;SDS011;11614;52.494;6.976;2022-12-07T14:49:34;3.50;;;0.53;;
22894;SDS011;11614;52.494;6.976;2022-12-07T14:52:00;4.00;;;0.50;;
22894;SDS011;11614;52.494;6.976;2022-12-07T14:54:26;6.60;;;0.70;;
22894;SDS011;11614;52.494;6.976;2022-12-07T14:56:53;2.77;;;0.70;;
22894;SDS011;11614;52.494;6.976;2022-12-07T14:59:19;4.03;;;0.60;;
22894;SDS011;11614;52.494;6.976;2022-12-07T15:01:45;2.63;;;0.23;;
22894;SDS011;11614;52.494;6.976;2022-12-07T15:04:11;4.20;;;0.50;;
22894;SDS011;11614;52.494;6.976;2022-12-07T15:06:37;11.87;;;1.33;;
22894;SDS011;11614;52.494;6.976;2022-12-07T15:09:03;6.33;;;0.90;;
22894;SDS011;11614;52.494;6.976;2022-12-07T15:11:29;3.80;;;0.70;;
22894;SDS011;11614;52.494;6.976;2022-12-07T15:13:55;3.10;;;0.73;;
22894;SDS011;11614;52.494;6.976;2022-12-07T15:16:34;5.63;;;1.50;;
22894;SDS011;11614;52.494;6.976;2022-12-07T15:22:24;4.47;;;0.80;;
22894;SDS011;11614;52.494;6.976;2022-12-07T15:40:41;2.83;;;0.60;;
22894;SDS011;11614;52.494;6.976;2022-12-07T15:46:46;4.87;;;0.80;;
22894;SDS011;11614;52.494;6.976;2022-12-07T15:49:43;1.37;;;0.33;;
22894;SDS011;11614;52.494;6.976;2022-12-07T15:52:40;1.97;;;0.43;;
22894;SDS011;11614;52.494;6.976;2022-12-07T16:02:28;4.57;;;1.53;;
22894;SDS011;11614;52.494;6.976;2022-12-07T16:05:36;4.27;;;1.37;;
22894;SDS011;11614;52.494;6.976;2022-12-07T16:23:29;5.83;;;2.50;;
22894;SDS011;11614;52.494;6.976;2022-12-07T16:48:14;4.57;;;0.70;;
22894;SDS011;11614;52.494;6.976;2022-12-07T16:50:41;2.87;;;0.50;;
22894;SDS011;11614;52.494;6.976;2022-12-07T16:53:08;0.63;;;0.17;;
22894;SDS011;11614;52.494;6.976;2022-12-07T16:55:41;1.97;;;0.27;;
22894;SDS011;11614;52.494;6.976;2022-12-07T16:58:09;2.27;;;0.50;;
22894;SDS011;11614;52.494;6.976;2022-12-07T17:00:36;3.10;;;0.50;;
22894;SDS011;11614;52.494;6.976;2022-12-07T17:03:02;2.73;;;1.40;;
22894;SDS011;11614;52.494;6.976;2022-12-07T17:05:28;2.30;;;0.30;;
22894;SDS011;11614;52.494;6.976;2022-12-07T17:07:55;1.43;;;0.77;;
22894;SDS011;11614;52.494;6.976;2022-12-07T17:10:22;4.83;;;0.83;;
22894;SDS011;11614;52.494;6.976;2022-12-07T17:12:48;0.30;;;0.10;;
22894;SDS011;11614;52.494;6.976;2022-12-07T17:15:14;0.90;;;0.20;;
22894;SDS011;11614;52.494;6.976;2022-12-07T17:17:55;1.87;;;0.40;;
22894;SDS011;11614;52.494;6.976;2022-12-07T17:20:22;1.80;;;0.60;;
22894;SDS011;11614;52.494;6.976;2022-12-07T17:22:48;2.17;;;0.30;;
22894;SDS011;11614;52.494;6.976;2022-12-07T17:25:14;2.00;;;0.10;;
22894;SDS011;11614;52.494;6.976;2022-12-07T17:27:41;1.33;;;0.10;;
22894;SDS011;11614;52.494;6.976;2022-12-07T17:30:07;1.33;;;0.20;;
22894;SDS011;11614;52.494;6.976;2022-12-07T17:32:33;0.67;;;0.20;;
22894;SDS011;11614;52.494;6.976;2022-12-07T17:35:00;1.40;;;0.20;;
22894;SDS011;11614;52.494;6.976;2022-12-07T17:37:26;2.10;;;0.40;;
22894;SDS011;11614;52.494;6.976;2022-12-07T17:39:52;2.53;;;0.60;;
22894;SDS011;11614;52.494;6.976;2022-12-07T17:42:22;1.07;;;0.10;;
22894;SDS011;11614;52.494;6.976;2022-12-07T17:45:01;3.90;;;0.60;;
22894;SDS011;11614;52.494;6.976;2022-12-07T17:47:27;1.67;;;0.70;;
22894;SDS011;11614;52.494;6.976;2022-12-07T17:49:53;1.87;;;0.70;;
22894;SDS011;11614;52.494;6.976;2022-12-07T17:52:19;8.80;;;2.60;;
22894;SDS011;11614;52.494;6.976;2022-12-07T17:55:04;4.13;;;1.40;;
22894;SDS011;11614;52.494;6.976;2022-12-07T17:57:30;6.87;;;2.87;;
22894;SDS011;11614;52.494;6.976;2022-12-07T17:59:56;4.03;;;1.60;;
22894;SDS011;11614;52.494;6.976;2022-12-07T18:02:22;3.80;;;1.90;;
22894;SDS011;11614;52.494;6.976;2022-12-07T18:04:48;6.90;;;1.83;;
22894;SDS011;11614;52.494;6.976;2022-12-07T18:07:14;3.53;;;1.10;;
22894;SDS011;11614;52.494;6.976;2022-12-07T18:09:41;3.87;;;1.13;;
22894;SDS011;11614;52.494;6.976;2022-12-07T18:12:07;1.53;;;0.30;;
22894;SDS011;11614;52.494;6.976;2022-12-07T18:14:33;3.40;;;1.23;;
22894;SDS011;11614;52.494;6.976;2022-12-07T18:16:59;3.20;;;0.80;;
22894;SDS011;11614;52.494;6.976;2022-12-07T18:19:25;2.93;;;1.17;;
22894;SDS011;11614;52.494;6.976;2022-12-07T18:21:51;4.77;;;1.10;;
22894;SDS011;11614;52.494;6.976;2022-12-07T18:24:17;3.67;;;0.90;;
22894;SDS011;11614;52.494;6.976;2022-12-07T18:26:44;3.10;;;1.07;;
22894;SDS011;11614;52.494;6.976;2022-12-07T18:29:15;5.47;;;1.90;;
22894;SDS011;11614;52.494;6.976;2022-12-07T18:31:41;3.33;;;0.87;;
22894;SDS011;11614;52.494;6.976;2022-12-07T18:34:09;6.67;;;1.20;;
22894;SDS011;11614;52.494;6.976;2022-12-07T18:36:36;5.23;;;1.87;;
22894;SDS011;11614;52.494;6.976;2022-12-07T18:39:03;2.37;;;1.50;;
22894;SDS011;11614;52.494;6.976;2022-12-07T18:41:29;4.83;;;2.10;;
22894;SDS011;11614;52.494;6.976;2022-12-07T18:43:55;3.73;;;2.00;;
22894;SDS011;11614;52.494;6.976;2022-12-07T18:46:22;3.17;;;2.07;;
22894;SDS011;11614;52.494;6.976;2022-12-07T18:48:48;5.30;;;1.80;;
22894;SDS011;11614;52.494;6.976;2022-12-07T18:51:15;5.13;;;1.87;;
22894;SDS011;11614;52.494;6.976;2022-12-07T18:53:41;4.40;;;1.87;;
22894;SDS011;11614;52.494;6.976;2022-12-07T18:56:12;5.47;;;2.47;;
22894;SDS011;11614;52.494;6.976;2022-12-07T18:58:38;5.90;;;1.97;;
22894;SDS011;11614;52.494;6.976;2022-12-07T19:01:30;4.10;;;1.90;;
22894;SDS011;11614;52.494;6.976;2022-12-07T19:03:57;3.83;;;1.80;;
22894;SDS011;11614;52.494;6.976;2022-12-07T19:06:23;1.40;;;0.60;;
22894;SDS011;11614;52.494;6.976;2022-12-07T19:08:49;4.23;;;1.03;;
22894;SDS011;11614;52.494;6.976;2022-12-07T19:11:16;3.90;;;1.10;;
22894;SDS011;11614;52.494;6.976;2022-12-07T19:14:01;1.83;;;0.40;;
22894;SDS011;11614;52.494;6.976;2022-12-07T19:16:27;3.37;;;0.67;;
22894;SDS011;11614;52.494;6.976;2022-12-07T19:18:53;4.17;;;1.53;;